Strona główna
METAR-TAF:

METAR-TAF

Lotnisko :

Port lotniczy Krabi

Krabi, Tajlandia

Szerokość geograficzna: 08-06-03N, Długość geograficzna: 098-59-05E, wysokość: 25 m

Aktualna obserwacja pogody

Raport powstał 38 minut temu, godzina 00:00 UTC
Cisza
Temperatura 24°C
Wilgotność 94%
Ciśnienie 1011 hPa
Widzialność: 9000 m
Mało chmury na wysokości 2000 ft
Przerywane chmury na wysokości 10000 ft

METAR: VTSG 310000Z 00000KT 9000 FEW020 BKN100 24/23 Q1011 NOSIG

czas: 07:38 (00:38 UTC)

Prognoza

Raport powstał 1 godzina i 38 minut temu, godzina 23:00 UTC
Prognoza ważna od 31 godzina 00 UTC do 31 godzina 24 UTC
Wiatr kt od północ
Widzialność 10 km lub więcej
Mało chmury na wysokości 2000 ft
Stopniowe zmiany
od 31 godzina 02 UTC do 31 godzina 04 UTC
Wiatr 6 kt od południowy zachód
Stopniowe zmiany
od 31 godzina 12 UTC do 31 godzina 14 UTC
Wiatr kt od północ

TAF: VTSG 302300Z 3100/3124 00000KT 9999 FEW020 BECMG 3102/3104 22006KT BECMG 3112/3114 00000KT

Obserwacja i prognoza pogody dla ponad 4000 lotnisk (raport METAR i TAF).

Dostępne stacje oznaczono żółtymi i czerwonymi punktami na mapie.

Najedź kursorem aby zobaczyć nazwę stacji.

Kliknij aby zobaczyć obserwacje i prognozy pogody.

Aby zmienić mapę: kliknij na zielony przycisk z czarnym krzyżykiem, aby powiększyć; na zielony przycisk z myślnikiem, aby pomniejszyć; na zielone strzałki, aby przejść do map sąsiednich.


METAR-TAF: